Time;durP1;ratioP1;P1;durP2;ratioP2;P2;SDS_P1;SDS_P2;PMS_P1;PMS_P2;Temp;Humidity;BMP_temperature;BMP_pressure;BME280_temperature;BME280_humidity;BME280_pressure;Samples;Min_cycle;Max_cycle;Signal;HPM_P1;HPM_P2
2023/05/04 00:01:56;;;;;;;13.00;8.82;;;;;;;;;;5110620;28;20029;-61
2023/05/04 00:04:22;;;;;;;11.98;9.05;;;;;;;;;;5109302;28;20462;-60
2023/05/04 00:06:48;;;;;;;13.02;8.90;;;;;;;;;;5111803;28;20023;-63
2023/05/04 00:09:15;;;;;;;12.05;8.95;;;;;;;;;;5110588;28;20099;-61
2023/05/04 00:11:41;;;;;;;12.20;8.48;;;;;;;;;;5109690;28;20122;-63
2023/05/04 00:14:07;;;;;;;11.80;8.40;;;;;;;;;;5110070;28;20085;-61
2023/05/04 00:16:34;;;;;;;10.77;8.25;;;;;;;;;;5109892;28;20024;-60
2023/05/04 00:19:00;;;;;;;12.90;8.63;;;;;;;;;;5109882;28;20035;-60
2023/05/04 00:21:26;;;;;;;11.63;8.13;;;;;;;;;;5109822;28;20028;-62
2023/05/04 00:23:52;;;;;;;11.80;9.32;;;;;;;;;;5109042;28;20024;-62
2023/05/04 00:26:18;;;;;;;12.50;8.75;;;;;;;;;;5109313;28;20024;-62
2023/05/04 00:28:44;;;;;;;9.50;7.63;;;;;;;;;;5109244;28;20047;-61
2023/05/04 00:31:10;;;;;;;13.05;8.50;;;;;;;;;;5109356;28;20035;-60
2023/05/04 00:33:36;;;;;;;12.18;8.52;;;;;;;;;;5108874;27;20024;-61
2023/05/04 00:36:05;;;;;;;13.98;8.00;;;;;;;;;;5110433;28;20035;-60
2023/05/04 00:38:31;;;;;;;11.05;8.10;;;;;;;;;;5111122;28;20493;-63
2023/05/04 00:40:57;;;;;;;12.15;8.10;;;;;;;;;;5109268;28;20436;-62
2023/05/04 00:43:24;;;;;;;9.77;7.50;;;;;;;;;;5109310;28;20024;-60
2023/05/04 00:45:50;;;;;;;11.18;7.93;;;;;;;;;;5108430;28;20035;-62
2023/05/04 00:48:16;;;;;;;11.13;7.20;;;;;;;;;;5108999;28;20095;-60
2023/05/04 00:50:42;;;;;;;10.38;7.43;;;;;;;;;;5110432;28;20546;-62
2023/05/04 00:53:08;;;;;;;9.32;7.28;;;;;;;;;;5109249;28;20020;-60
2023/05/04 00:55:39;;;;;;;9.88;7.55;;;;;;;;;;5108688;28;20046;-64
2023/05/04 00:58:06;;;;;;;9.10;7.05;;;;;;;;;;5108878;28;20031;-62
2023/05/04 01:00:33;;;;;;;9.45;6.78;;;;;;;;;;5110137;28;20118;-62
2023/05/04 01:02:59;;;;;;;9.43;7.07;;;;;;;;;;5109106;28;20012;-62
2023/05/04 01:05:26;;;;;;;10.68;6.93;;;;;;;;;;5109815;28;20047;-61
2023/05/04 01:07:58;;;;;;;9.50;7.07;;;;;;;;;;5112262;28;20030;-61
2023/05/04 01:10:34;;;;;;;10.13;7.03;;;;;;;;;;5109145;28;20024;-62
2023/05/04 01:13:01;;;;;;;9.18;6.72;;;;;;;;;;5109138;28;20036;-62
2023/05/04 01:15:29;;;;;;;9.32;6.82;;;;;;;;;;5108828;28;20044;-59
2023/05/04 01:17:55;;;;;;;10.57;6.97;;;;;;;;;;5108050;28;20034;-61
2023/05/04 01:20:21;;;;;;;10.10;6.43;;;;;;;;;;5108436;28;20024;-63
2023/05/04 01:22:47;;;;;;;8.95;7.20;;;;;;;;;;5108001;28;20110;-61
2023/05/04 01:25:13;;;;;;;8.55;6.05;;;;;;;;;;5107422;28;20031;-64
2023/05/04 01:27:45;;;;;;;9.55;6.60;;;;;;;;;;5107997;28;20027;-62
2023/05/04 01:30:18;;;;;;;10.50;6.90;;;;;;;;;;5108565;28;20054;-61
2023/05/04 01:32:44;;;;;;;9.80;7.07;;;;;;;;;;5108136;28;20027;-60
2023/05/04 01:35:13;;;;;;;8.85;6.97;;;;;;;;;;5108869;27;20062;-60
2023/05/04 01:37:40;;;;;;;7.80;5.97;;;;;;;;;;5109777;28;20536;-65
2023/05/04 01:40:06;;;;;;;9.45;6.20;;;;;;;;;;5108498;28;20487;-60
2023/05/04 01:42:32;;;;;;;8.23;6.53;;;;;;;;;;5108302;28;20098;-60
2023/05/04 01:44:58;;;;;;;9.25;6.25;;;;;;;;;;5108357;28;20028;-63
2023/05/04 01:47:24;;;;;;;8.85;6.50;;;;;;;;;;5107521;28;20566;-60
2023/05/04 01:49:50;;;;;;;7.63;5.90;;;;;;;;;;5107033;28;20032;-62
2023/05/04 01:52:16;;;;;;;8.15;5.80;;;;;;;;;;5108899;28;20099;-61
2023/05/04 01:54:42;;;;;;;8.93;5.95;;;;;;;;;;5107970;28;20118;-60
2023/05/04 01:57:08;;;;;;;9.63;5.88;;;;;;;;;;5107997;28;20032;-61
2023/05/04 01:59:34;;;;;;;9.32;6.07;;;;;;;;;;5107514;28;20036;-62
2023/05/04 02:02:00;;;;;;;12.38;5.85;;;;;;;;;;5107915;28;20514;-62
2023/05/04 02:04:26;;;;;;;7.97;5.32;;;;;;;;;;5107639;28;20019;-64
2023/05/04 02:06:52;;;;;;;8.68;5.97;;;;;;;;;;5109666;28;20491;-60
2023/05/04 02:09:18;;;;;;;7.68;5.43;;;;;;;;;;5108290;28;20072;-62
2023/05/04 02:11:44;;;;;;;8.82;6.00;;;;;;;;;;5107335;28;20071;-62
2023/05/04 02:14:10;;;;;;;7.57;5.80;;;;;;;;;;5107586;28;20024;-61
2023/05/04 02:16:36;;;;;;;6.95;5.60;;;;;;;;;;5107318;28;20032;-63
2023/05/04 02:19:02;;;;;;;8.00;5.93;;;;;;;;;;5107887;28;20054;-61
2023/05/04 02:21:28;;;;;;;6.55;5.07;;;;;;;;;;5106555;28;20084;-62
2023/05/04 02:23:54;;;;;;;7.35;5.07;;;;;;;;;;5106885;28;20403;-61
2023/05/04 02:26:20;;;;;;;7.60;5.20;;;;;;;;;;5107323;28;20140;-63
2023/05/04 02:28:46;;;;;;;8.32;5.68;;;;;;;;;;5108495;28;20028;-60
2023/05/04 02:31:12;;;;;;;7.47;5.15;;;;;;;;;;5107179;27;20467;-62
2023/05/04 02:33:38;;;;;;;7.35;5.00;;;;;;;;;;5106970;28;20054;-61
2023/05/04 02:36:04;;;;;;;8.00;5.45;;;;;;;;;;5108791;28;20046;-60
2023/05/04 02:38:30;;;;;;;6.50;5.35;;;;;;;;;;5108157;28;20146;-63
2023/05/04 02:40:57;;;;;;;7.25;5.20;;;;;;;;;;5111193;28;20070;-62
2023/05/04 02:43:23;;;;;;;5.35;4.22;;;;;;;;;;5111696;28;20035;-64
2023/05/04 02:45:49;;;;;;;8.98;5.15;;;;;;;;;;5111078;28;20438;-60
2023/05/04 02:48:15;;;;;;;6.90;4.95;;;;;;;;;;5107005;28;20077;-63
2023/05/04 02:50:41;;;;;;;6.72;5.20;;;;;;;;;;5108128;28;20470;-62
2023/05/04 02:53:07;;;;;;;7.50;5.32;;;;;;;;;;5106684;28;20028;-60
2023/05/04 02:55:33;;;;;;;7.63;5.07;;;;;;;;;;5106650;28;20514;-60
2023/05/04 02:58:00;;;;;;;7.03;4.47;;;;;;;;;;5106896;28;20023;-62
2023/05/04 03:00:26;;;;;;;9.02;4.90;;;;;;;;;;5106888;28;20495;-60
2023/05/04 03:02:52;;;;;;;6.32;4.72;;;;;;;;;;5106522;28;20107;-62
2023/05/04 03:05:18;;;;;;;6.82;4.90;;;;;;;;;;5106571;28;20123;-62
2023/05/04 03:07:44;;;;;;;7.03;5.15;;;;;;;;;;5106565;28;20102;-61
2023/05/04 03:10:10;;;;;;;6.22;4.60;;;;;;;;;;5105352;28;20119;-62
2023/05/04 03:12:36;;;;;;;6.05;4.25;;;;;;;;;;5106518;28;20411;-60
2023/05/04 03:15:02;;;;;;;9.60;5.32;;;;;;;;;;5106964;28;20039;-63
2023/05/04 03:17:28;;;;;;;6.63;4.60;;;;;;;;;;5106838;28;20020;-62
2023/05/04 03:19:54;;;;;;;6.18;4.82;;;;;;;;;;5106062;28;20039;-61
2023/05/04 03:22:20;;;;;;;7.70;4.88;;;;;;;;;;5106515;28;20024;-60
2023/05/04 03:24:46;;;;;;;6.45;3.97;;;;;;;;;;5105758;28;20024;-61
2023/05/04 03:27:12;;;;;;;5.90;4.82;;;;;;;;;;5106689;28;20035;-60
2023/05/04 03:29:38;;;;;;;7.05;4.65;;;;;;;;;;5106380;28;20032;-63
2023/05/04 03:32:04;;;;;;;6.80;4.47;;;;;;;;;;5106751;28;20068;-61
2023/05/04 03:34:30;;;;;;;6.65;4.38;;;;;;;;;;5106783;28;20118;-61
2023/05/04 03:36:57;;;;;;;5.40;4.30;;;;;;;;;;5106294;28;20062;-61
2023/05/04 03:39:23;;;;;;;6.72;4.40;;;;;;;;;;5106171;28;20740;-60
2023/05/04 03:41:51;;;;;;;5.43;4.07;;;;;;;;;;5108873;28;20115;-60
2023/05/04 03:44:16;;;;;;;5.82;4.45;;;;;;;;;;5109441;28;20146;-63
2023/05/04 03:46:42;;;;;;;5.65;4.00;;;;;;;;;;5107488;28;20036;-61
2023/05/04 03:49:08;;;;;;;5.78;4.25;;;;;;;;;;5106442;28;20471;-62
2023/05/04 03:51:34;;;;;;;5.38;4.07;;;;;;;;;;5107347;28;20055;-61
2023/05/04 03:54:01;;;;;;;6.78;4.80;;;;;;;;;;5106612;28;20028;-61
2023/05/04 03:56:27;;;;;;;6.47;4.35;;;;;;;;;;5106030;28;20085;-61
2023/05/04 03:58:53;;;;;;;5.47;3.67;;;;;;;;;;5108570;28;20583;-63
2023/05/04 04:01:19;;;;;;;6.22;4.10;;;;;;;;;;5106423;28;20032;-61
2023/05/04 04:03:45;;;;;;;8.80;4.63;;;;;;;;;;5105815;28;20043;-62
2023/05/04 04:06:12;;;;;;;5.65;4.60;;;;;;;;;;5106041;28;20532;-61
2023/05/04 04:08:38;;;;;;;6.65;4.68;;;;;;;;;;5106636;28;20102;-60
2023/05/04 04:11:04;;;;;;;7.63;4.47;;;;;;;;;;5109970;28;20724;-63
2023/05/04 04:13:30;;;;;;;5.68;4.03;;;;;;;;;;5112797;28;20121;-61
2023/05/04 04:15:56;;;;;;;5.80;4.25;;;;;;;;;;5110241;28;20118;-62
2023/05/04 04:18:23;;;;;;;4.97;3.80;;;;;;;;;;5109565;28;20762;-62
2023/05/04 04:20:49;;;;;;;5.65;4.00;;;;;;;;;;5109280;27;20037;-60
2023/05/04 04:23:18;;;;;;;5.97;4.30;;;;;;;;;;5109099;28;20100;-60
2023/05/04 04:25:44;;;;;;;5.57;3.83;;;;;;;;;;5109759;28;20031;-60
2023/05/04 04:28:12;;;;;;;7.28;3.88;;;;;;;;;;5111009;28;20040;-60
2023/05/04 04:30:38;;;;;;;5.25;3.95;;;;;;;;;;5109699;28;20027;-62
2023/05/04 04:33:04;;;;;;;5.43;3.78;;;;;;;;;;5109924;28;20024;-63
2023/05/04 04:35:33;;;;;;;6.07;4.30;;;;;;;;;;5110367;27;20589;-65
2023/05/04 04:37:59;;;;;;;9.27;4.05;;;;;;;;;;5111678;28;20024;-60
2023/05/04 04:40:25;;;;;;;6.10;4.20;;;;;;;;;;5109961;28;20020;-60
2023/05/04 04:42:52;;;;;;;8.05;4.47;;;;;;;;;;5109627;28;20067;-60
2023/05/04 04:45:19;;;;;;;6.13;3.90;;;;;;;;;;5109242;28;20487;-60
2023/05/04 04:47:45;;;;;;;5.13;3.67;;;;;;;;;;5109069;28;20031;-60
2023/05/04 04:50:11;;;;;;;5.78;3.70;;;;;;;;;;5110228;28;20344;-63
2023/05/04 04:52:39;;;;;;;5.57;3.70;;;;;;;;;;5109184;27;20487;-61
2023/05/04 04:55:06;;;;;;;4.82;3.70;;;;;;;;;;5109657;28;20043;-59
2023/05/04 04:57:32;;;;;;;5.32;3.50;;;;;;;;;;5109122;28;20051;-61
2023/05/04 04:59:59;;;;;;;6.22;3.72;;;;;;;;;;5109301;28;20096;-60
2023/05/04 05:02:26;;;;;;;7.15;3.85;;;;;;;;;;5109486;28;20032;-60
2023/05/04 05:04:53;;;;;;;6.47;4.50;;;;;;;;;;5109040;28;20372;-60
2023/05/04 05:07:19;;;;;;;5.45;3.88;;;;;;;;;;5111587;27;20076;-60
2023/05/04 05:09:45;;;;;;;5.93;4.25;;;;;;;;;;5108737;28;20047;-62
2023/05/04 05:12:11;;;;;;;5.00;3.67;;;;;;;;;;5111112;28;20051;-60
2023/05/04 05:14:37;;;;;;;5.82;3.25;;;;;;;;;;5109186;28;20028;-60
2023/05/04 05:17:03;;;;;;;5.68;3.70;;;;;;;;;;5109634;27;20396;-60
2023/05/04 05:19:29;;;;;;;5.55;4.10;;;;;;;;;;5110160;28;20047;-61
2023/05/04 05:21:55;;;;;;;6.35;3.80;;;;;;;;;;5111986;28;20036;-59
2023/05/04 05:24:22;;;;;;;7.43;3.95;;;;;;;;;;5111858;28;20099;-60
2023/05/04 05:26:48;;;;;;;4.95;3.72;;;;;;;;;;5111616;28;20503;-60
2023/05/04 05:29:14;;;;;;;5.05;3.50;;;;;;;;;;5112248;28;20466;-61
2023/05/04 05:31:40;;;;;;;6.47;3.95;;;;;;;;;;5111655;28;20469;-61
2023/05/04 05:34:06;;;;;;;6.60;3.58;;;;;;;;;;5112424;28;20050;-60
2023/05/04 05:36:32;;;;;;;6.57;4.10;;;;;;;;;;5113251;28;20085;-59
2023/05/04 05:38:58;;;;;;;10.23;3.92;;;;;;;;;;5112854;28;20049;-61
2023/05/04 05:41:24;;;;;;;8.57;4.00;;;;;;;;;;5113015;28;20066;-61
2023/05/04 05:43:50;;;;;;;5.95;3.10;;;;;;;;;;5112159;28;20047;-60
2023/05/04 05:46:17;;;;;;;10.25;3.80;;;;;;;;;;5112226;28;20051;-61
2023/05/04 05:48:43;;;;;;;8.13;3.38;;;;;;;;;;5112262;28;20038;-63
2023/05/04 05:51:09;;;;;;;7.40;3.75;;;;;;;;;;5112291;27;20019;-60
2023/05/04 05:53:35;;;;;;;5.90;2.92;;;;;;;;;;5112439;28;20028;-60
2023/05/04 05:56:01;;;;;;;7.70;3.92;;;;;;;;;;5112986;28;20039;-61
2023/05/04 05:58:27;;;;;;;7.40;3.70;;;;;;;;;;5112644;28;20019;-61
2023/05/04 06:00:53;;;;;;;7.32;3.50;;;;;;;;;;5112385;28;20396;-60
2023/05/04 06:03:19;;;;;;;6.15;3.15;;;;;;;;;;5111923;28;20026;-59
2023/05/04 06:05:45;;;;;;;6.72;3.70;;;;;;;;;;5112128;28;20373;-60
2023/05/04 06:08:11;;;;;;;9.77;3.72;;;;;;;;;;5112057;28;20024;-60
2023/05/04 06:10:37;;;;;;;5.78;3.30;;;;;;;;;;5112210;28;20032;-62
2023/05/04 06:13:03;;;;;;;8.50;4.25;;;;;;;;;;5111438;28;20022;-60
2023/05/04 06:15:29;;;;;;;4.97;3.63;;;;;;;;;;5112058;28;20443;-59
2023/05/04 06:17:55;;;;;;;6.15;4.00;;;;;;;;;;5111793;28;20035;-60
2023/05/04 06:20:21;;;;;;;13.60;3.75;;;;;;;;;;5111861;28;20039;-61
2023/05/04 06:22:47;;;;;;;7.80;3.95;;;;;;;;;;5111976;28;20031;-60
2023/05/04 06:25:13;;;;;;;6.40;4.10;;;;;;;;;;5111614;28;20028;-60
2023/05/04 06:27:39;;;;;;;8.48;4.13;;;;;;;;;;5111316;28;20471;-59
2023/05/04 06:30:06;;;;;;;5.72;4.10;;;;;;;;;;5112129;28;20024;-60
2023/05/04 06:32:32;;;;;;;7.57;3.83;;;;;;;;;;5111937;28;20102;-64
2023/05/04 06:34:58;;;;;;;5.32;3.70;;;;;;;;;;5112402;28;20035;-60
2023/05/04 06:37:25;;;;;;;4.85;3.55;;;;;;;;;;5111145;28;20026;-62
2023/05/04 06:39:51;;;;;;;8.55;4.70;;;;;;;;;;5112466;28;20552;-59
2023/05/04 06:42:17;;;;;;;7.45;4.25;;;;;;;;;;5111704;28;20066;-62
2023/05/04 06:44:43;;;;;;;6.13;4.45;;;;;;;;;;5111204;28;20467;-60
2023/05/04 06:47:09;;;;;;;6.05;3.60;;;;;;;;;;5111779;28;20024;-59
2023/05/04 06:49:35;;;;;;;7.22;4.05;;;;;;;;;;5111709;28;20027;-60
2023/05/04 06:52:01;;;;;;;5.25;3.60;;;;;;;;;;5112193;28;20023;-60
2023/05/04 06:54:27;;;;;;;6.38;4.55;;;;;;;;;;5111537;28;20023;-63
2023/05/04 06:56:53;;;;;;;5.80;3.60;;;;;;;;;;5111429;28;20066;-59
2023/05/04 06:59:20;;;;;;;5.68;3.80;;;;;;;;;;5111645;28;20016;-59
2023/05/04 07:01:47;;;;;;;7.88;4.55;;;;;;;;;;5111515;28;20043;-61
2023/05/04 07:04:15;;;;;;;6.78;4.28;;;;;;;;;;5111508;28;20071;-61
2023/05/04 07:06:42;;;;;;;7.40;4.38;;;;;;;;;;5111453;28;20099;-59
2023/05/04 07:09:08;;;;;;;7.50;4.13;;;;;;;;;;5111334;28;20030;-61
2023/05/04 07:11:34;;;;;;;5.38;3.70;;;;;;;;;;5110817;28;20024;-60
2023/05/04 07:14:00;;;;;;;7.15;3.58;;;;;;;;;;5112068;28;20026;-60
2023/05/04 07:16:26;;;;;;;8.00;3.42;;;;;;;;;;5111347;28;20406;-60
2023/05/04 07:18:52;;;;;;;6.22;3.95;;;;;;;;;;5111305;28;20024;-59
2023/05/04 07:21:18;;;;;;;5.72;3.92;;;;;;;;;;5111349;28;20035;-60
2023/05/04 07:23:44;;;;;;;7.72;3.53;;;;;;;;;;5111257;28;20433;-59
2023/05/04 07:26:10;;;;;;;5.55;3.88;;;;;;;;;;5110895;28;20027;-60
2023/05/04 07:28:37;;;;;;;7.88;3.60;;;;;;;;;;5110820;28;20028;-60
2023/05/04 07:31:03;;;;;;;5.90;3.45;;;;;;;;;;5111662;28;20028;-60
2023/05/04 07:33:29;;;;;;;6.78;4.38;;;;;;;;;;5110240;28;20094;-59
2023/05/04 07:35:57;;;;;;;6.30;3.60;;;;;;;;;;5110902;28;20495;-59
2023/05/04 07:38:23;;;;;;;6.28;4.25;;;;;;;;;;5111342;28;20402;-59
2023/05/04 07:40:49;;;;;;;6.28;3.60;;;;;;;;;;5111138;28;20034;-59
2023/05/04 07:43:15;;;;;;;5.78;3.95;;;;;;;;;;5111382;28;20020;-59
2023/05/04 07:45:41;;;;;;;4.80;3.65;;;;;;;;;;5115205;28;20023;-59
2023/05/04 07:48:07;;;;;;;6.47;3.40;;;;;;;;;;5114937;28;20027;-59
2023/05/04 07:50:33;;;;;;;4.90;3.60;;;;;;;;;;5114631;28;20059;-60
2023/05/04 07:52:59;;;;;;;5.45;3.42;;;;;;;;;;5115456;28;20043;-60
2023/05/04 07:55:27;;;;;;;5.68;3.30;;;;;;;;;;5114975;28;20479;-59
2023/05/04 07:57:53;;;;;;;8.63;4.13;;;;;;;;;;5114965;28;20036;-59
2023/05/04 08:00:20;;;;;;;5.90;3.50;;;;;;;;;;5115071;28;20031;-59
2023/05/04 08:02:46;;;;;;;4.88;3.45;;;;;;;;;;5114702;28;20031;-59
2023/05/04 08:05:12;;;;;;;6.85;3.67;;;;;;;;;;5114754;28;20031;-60
2023/05/04 08:07:38;;;;;;;7.82;2.88;;;;;;;;;;5114653;28;20028;-59
2023/05/04 08:10:04;;;;;;;4.93;3.17;;;;;;;;;;5115014;28;20375;-60
2023/05/04 08:12:30;;;;;;;5.63;3.58;;;;;;;;;;5115153;28;20023;-61
2023/05/04 08:14:56;;;;;;;7.18;4.00;;;;;;;;;;5113170;28;20038;-59
2023/05/04 08:17:22;;;;;;;5.55;3.38;;;;;;;;;;5114768;28;20024;-59
2023/05/04 08:19:49;;;;;;;5.97;3.00;;;;;;;;;;5114357;28;20493;-59
2023/05/04 08:22:15;;;;;;;6.72;3.53;;;;;;;;;;5114068;28;20028;-59
2023/05/04 08:24:41;;;;;;;5.18;3.50;;;;;;;;;;5113830;28;20540;-60
2023/05/04 08:27:07;;;;;;;7.93;3.35;;;;;;;;;;5114208;28;20055;-59
2023/05/04 08:29:35;;;;;;;5.45;3.47;;;;;;;;;;5114316;28;20020;-60
2023/05/04 08:32:01;;;;;;;5.50;2.78;;;;;;;;;;5114681;28;20038;-59
2023/05/04 08:34:27;;;;;;;6.00;3.28;;;;;;;;;;5113050;28;20020;-59
2023/05/04 08:36:53;;;;;;;6.50;3.33;;;;;;;;;;5114039;28;20039;-59
2023/05/04 08:39:19;;;;;;;7.47;3.20;;;;;;;;;;5114215;28;20024;-59
2023/05/04 08:41:45;;;;;;;5.63;3.80;;;;;;;;;;5113811;27;20027;-59
2023/05/04 08:44:11;;;;;;;4.00;2.92;;;;;;;;;;5113784;28;20035;-60
2023/05/04 08:46:39;;;;;;;5.35;3.63;;;;;;;;;;5114054;28;20380;-59
2023/05/04 08:49:05;;;;;;;7.88;3.30;;;;;;;;;;5113448;28;20035;-59
2023/05/04 08:51:34;;;;;;;5.95;3.22;;;;;;;;;;5114351;28;20043;-59
2023/05/04 08:54:01;;;;;;;5.28;3.05;;;;;;;;;;5113530;28;20031;-60
2023/05/04 08:56:27;;;;;;;7.35;3.63;;;;;;;;;;5113080;28;20134;-59
2023/05/04 08:58:56;;;;;;;4.82;2.90;;;;;;;;;;5113783;28;20425;-59
2023/05/04 09:01:22;;;;;;;4.72;3.35;;;;;;;;;;5113887;28;20032;-59
2023/05/04 09:03:48;;;;;;;6.18;3.88;;;;;;;;;;5113481;27;20032;-59
2023/05/04 09:06:15;;;;;;;4.38;2.80;;;;;;;;;;5113722;28;20027;-60
2023/05/04 09:08:41;;;;;;;6.75;3.30;;;;;;;;;;5113506;28;20036;-59
2023/05/04 09:11:07;;;;;;;5.40;3.15;;;;;;;;;;5113325;28;20019;-60
2023/05/04 09:13:34;;;;;;;4.00;2.85;;;;;;;;;;5113427;28;20443;-59
2023/05/04 09:16:00;;;;;;;4.93;2.75;;;;;;;;;;5113803;28;20453;-59
2023/05/04 09:18:36;;;;;;;7.70;3.65;;;;;;;;;;5113421;28;20024;-59
2023/05/04 09:21:02;;;;;;;4.22;3.00;;;;;;;;;;5113661;28;20028;-60
2023/05/04 09:23:28;;;;;;;4.38;2.70;;;;;;;;;;5112897;28;20026;-59
2023/05/04 09:25:55;;;;;;;5.40;3.08;;;;;;;;;;5112046;28;20030;-59
2023/05/04 09:28:32;;;;;;;4.43;2.95;;;;;;;;;;5112849;28;20023;-59
2023/05/04 09:31:01;;;;;;;4.72;3.08;;;;;;;;;;5113688;28;20083;-59
2023/05/04 09:33:28;;;;;;;5.68;3.13;;;;;;;;;;5111819;28;20102;-60
2023/05/04 09:35:54;;;;;;;7.35;3.00;;;;;;;;;;5112092;28;20035;-60
2023/05/04 09:38:25;;;;;;;4.90;3.00;;;;;;;;;;5112619;28;20031;-60
2023/05/04 09:40:51;;;;;;;4.72;3.08;;;;;;;;;;5111784;28;20168;-60
2023/05/04 09:43:17;;;;;;;4.78;3.15;;;;;;;;;;5113144;28;20108;-60
2023/05/04 09:45:44;;;;;;;3.47;2.90;;;;;;;;;;5112755;28;20078;-60
2023/05/04 09:48:29;;;;;;;6.28;3.70;;;;;;;;;;5113091;28;20028;-60
2023/05/04 09:50:58;;;;;;;3.83;3.05;;;;;;;;;;5112671;28;20106;-59
2023/05/04 09:53:25;;;;;;;5.65;2.83;;;;;;;;;;5112287;27;20026;-58
2023/05/04 09:56:07;;;;;;;6.18;3.05;;;;;;;;;;5112471;28;20125;-59
2023/05/04 09:58:33;;;;;;;7.15;3.42;;;;;;;;;;5092685;28;20039;-60
2023/05/04 10:01:02;;;;;;;5.15;2.90;;;;;;;;;;5092669;28;20028;-58
2023/05/04 10:03:29;;;;;;;5.72;3.08;;;;;;;;;;5096264;28;20016;-58
2023/05/04 10:05:55;;;;;;;7.93;3.67;;;;;;;;;;5111090;28;20032;-58
2023/05/04 10:08:22;;;;;;;5.93;3.45;;;;;;;;;;5112269;28;20016;-58
2023/05/04 10:10:48;;;;;;;5.90;3.20;;;;;;;;;;5112177;28;20039;-58
2023/05/04 10:13:16;;;;;;;7.05;3.30;;;;;;;;;;5112527;28;20054;-58
2023/05/04 10:15:50;;;;;;;3.42;3.00;;;;;;;;;;5112018;28;20487;-58
2023/05/04 10:18:16;;;;;;;4.68;3.10;;;;;;;;;;5111221;28;20069;-59
2023/05/04 10:20:51;;;;;;;5.22;3.40;;;;;;;;;;5111912;28;20031;-62
2023/05/04 10:23:35;;;;;;;4.07;3.10;;;;;;;;;;5111370;28;20102;-59
2023/05/04 10:26:12;;;;;;;4.78;3.38;;;;;;;;;;5112232;28;20038;-60
2023/05/04 10:28:40;;;;;;;4.88;3.15;;;;;;;;;;5112014;28;20031;-59
2023/05/04 10:31:07;;;;;;;6.47;3.53;;;;;;;;;;5111790;28;20034;-59
2023/05/04 10:33:39;;;;;;;6.50;3.97;;;;;;;;;;5111538;28;20055;-59
2023/05/04 10:36:05;;;;;;;4.50;3.13;;;;;;;;;;5112077;28;20035;-59
2023/05/04 10:38:34;;;;;;;4.65;3.00;;;;;;;;;;5112490;28;20020;-60
2023/05/04 10:41:00;;;;;;;4.47;2.70;;;;;;;;;;5112407;28;20027;-60
2023/05/04 10:43:31;;;;;;;4.45;3.45;;;;;;;;;;5112044;28;20023;-59
2023/05/04 10:45:57;;;;;;;4.35;2.80;;;;;;;;;;5111533;28;20028;-60
2023/05/04 10:48:33;;;;;;;5.05;3.08;;;;;;;;;;5111676;28;20483;-60
2023/05/04 10:50:59;;;;;;;3.90;3.35;;;;;;;;;;5110325;28;20093;-60
2023/05/04 10:53:32;;;;;;;3.88;2.58;;;;;;;;;;5111559;28;20090;-60
2023/05/04 10:55:58;;;;;;;5.65;3.28;;;;;;;;;;5111330;28;20118;-59
2023/05/04 10:58:27;;;;;;;4.15;3.13;;;;;;;;;;5111702;28;20035;-59
2023/05/04 11:00:54;;;;;;;5.00;2.72;;;;;;;;;;5110436;28;20024;-59
2023/05/04 11:03:21;;;;;;;4.85;3.67;;;;;;;;;;5110168;28;20020;-60
2023/05/04 11:05:50;;;;;;;3.40;2.35;;;;;;;;;;5111145;28;20035;-59
2023/05/04 11:08:16;;;;;;;4.25;2.75;;;;;;;;;;5111265;28;20028;-60
2023/05/04 11:10:43;;;;;;;5.50;3.10;;;;;;;;;;5111245;28;20079;-60
2023/05/04 11:13:12;;;;;;;3.97;2.40;;;;;;;;;;5110865;28;20059;-60
2023/05/04 11:15:45;;;;;;;5.72;3.30;;;;;;;;;;5111300;28;20115;-59
2023/05/04 11:18:11;;;;;;;4.45;2.35;;;;;;;;;;5111585;28;20405;-59
2023/05/04 11:20:37;;;;;;;5.13;2.75;;;;;;;;;;5115336;28;20031;-59
2023/05/04 11:23:06;;;;;;;4.35;2.88;;;;;;;;;;5115976;28;20020;-59
2023/05/04 11:25:34;;;;;;;4.85;2.67;;;;;;;;;;5115886;28;20028;-59
2023/05/04 11:28:01;;;;;;;3.42;2.65;;;;;;;;;;5115483;28;20027;-59
2023/05/04 11:30:31;;;;;;;5.65;3.78;;;;;;;;;;5115759;28;20030;-59
2023/05/04 11:32:59;;;;;;;3.63;3.05;;;;;;;;;;5115295;28;20028;-59
2023/05/04 11:35:25;;;;;;;11.40;3.40;;;;;;;;;;5115471;28;20046;-60
2023/05/04 11:37:51;;;;;;;5.28;3.08;;;;;;;;;;5114963;28;20023;-60
2023/05/04 11:40:18;;;;;;;9.38;3.30;;;;;;;;;;5115334;28;20072;-59
2023/05/04 11:42:44;;;;;;;10.00;2.83;;;;;;;;;;5115241;28;20031;-59
2023/05/04 11:45:18;;;;;;;5.05;3.13;;;;;;;;;;5115390;28;20379;-59
2023/05/04 11:47:45;;;;;;;10.15;4.00;;;;;;;;;;5114472;28;20024;-60
2023/05/04 11:50:12;;;;;;;5.90;3.35;;;;;;;;;;5115205;28;20027;-59
2023/05/04 11:52:39;;;;;;;7.10;3.85;;;;;;;;;;5115135;28;20082;-59
2023/05/04 11:55:07;;;;;;;6.68;3.67;;;;;;;;;;5115285;28;20036;-59
2023/05/04 11:57:36;;;;;;;6.75;3.90;;;;;;;;;;5114961;28;20024;-59
2023/05/04 12:00:03;;;;;;;6.65;3.50;;;;;;;;;;5115347;28;20032;-60
2023/05/04 12:02:29;;;;;;;7.70;3.65;;;;;;;;;;5114980;28;20027;-63
2023/05/04 12:04:55;;;;;;;6.82;4.10;;;;;;;;;;5114640;28;20054;-59
2023/05/04 12:07:21;;;;;;;7.05;3.78;;;;;;;;;;5114351;28;20026;-63
2023/05/04 12:09:48;;;;;;;14.07;3.65;;;;;;;;;;5114556;28;20093;-59
2023/05/04 12:12:15;;;;;;;6.32;3.10;;;;;;;;;;5114775;28;20026;-59
2023/05/04 12:14:47;;;;;;;6.03;3.17;;;;;;;;;;5114508;28;20031;-60
2023/05/04 12:17:14;;;;;;;6.43;3.40;;;;;;;;;;5114809;27;20027;-63
2023/05/04 12:19:47;;;;;;;9.55;3.45;;;;;;;;;;5114370;28;20024;-63
2023/05/04 12:22:13;;;;;;;6.57;3.40;;;;;;;;;;5114199;28;20028;-62
2023/05/04 12:24:39;;;;;;;5.43;2.90;;;;;;;;;;5114353;28;20055;-61
2023/05/04 12:27:11;;;;;;;4.95;3.30;;;;;;;;;;5114913;28;20031;-63
2023/05/04 12:29:37;;;;;;;4.72;3.08;;;;;;;;;;5113763;28;20048;-63
2023/05/04 12:32:03;;;;;;;5.63;3.28;;;;;;;;;;5114512;28;20515;-62
2023/05/04 12:34:30;;;;;;;5.00;3.33;;;;;;;;;;5114609;28;20020;-60
2023/05/04 12:36:56;;;;;;;7.63;3.13;;;;;;;;;;5113491;28;20024;-59
2023/05/04 12:39:22;;;;;;;6.43;3.75;;;;;;;;;;5114273;28;20414;-63
2023/05/04 12:41:48;;;;;;;7.78;3.85;;;;;;;;;;5114071;28;20055;-64
2023/05/04 12:44:15;;;;;;;5.97;3.70;;;;;;;;;;5113059;28;20395;-63
2023/05/04 12:46:42;;;;;;;6.13;3.80;;;;;;;;;;5113881;28;20483;-60
2023/05/04 12:49:09;;;;;;;6.28;3.60;;;;;;;;;;5113971;28;20059;-59
2023/05/04 12:51:36;;;;;;;7.75;3.58;;;;;;;;;;5113583;28;20039;-60
2023/05/04 12:54:02;;;;;;;5.15;3.80;;;;;;;;;;5114338;28;20102;-60
2023/05/04 12:56:28;;;;;;;5.10;3.60;;;;;;;;;;5113941;28;20479;-60
2023/05/04 12:58:54;;;;;;;6.25;4.35;;;;;;;;;;5113413;28;20474;-60
2023/05/04 13:01:20;;;;;;;5.13;3.67;;;;;;;;;;5113950;28;20038;-59
2023/05/04 13:03:46;;;;;;;5.35;3.80;;;;;;;;;;5113413;28;20480;-59
2023/05/04 13:06:12;;;;;;;6.13;3.72;;;;;;;;;;5113060;28;20016;-59
2023/05/04 13:08:38;;;;;;;4.43;3.83;;;;;;;;;;5113367;28;20461;-60
2023/05/04 13:11:04;;;;;;;5.25;3.85;;;;;;;;;;5113696;28;20019;-59
2023/05/04 13:13:30;;;;;;;5.65;4.35;;;;;;;;;;5113967;28;20024;-59
2023/05/04 13:15:56;;;;;;;6.78;4.60;;;;;;;;;;5113353;28;20027;-60
2023/05/04 13:18:25;;;;;;;4.88;4.22;;;;;;;;;;5113953;28;20027;-59
2023/05/04 13:20:52;;;;;;;5.20;4.22;;;;;;;;;;5112740;28;20165;-64
2023/05/04 13:23:20;;;;;;;5.78;4.30;;;;;;;;;;5113005;28;20063;-60
2023/05/04 13:25:46;;;;;;;7.78;4.63;;;;;;;;;;5112363;28;20028;-60
2023/05/04 13:52:41;;;;;;;5.63;4.53;;;;;;;;;;5092447;28;20085;-60
2023/05/04 13:55:07;;;;;;;5.45;4.45;;;;;;;;;;5092400;28;20434;-60
2023/05/04 13:57:33;;;;;;;5.80;4.57;;;;;;;;;;5091953;28;20410;-60
2023/05/04 13:59:59;;;;;;;6.63;4.88;;;;;;;;;;5092357;28;20030;-59
2023/05/04 14:02:25;;;;;;;5.78;4.63;;;;;;;;;;5092315;28;20028;-60
2023/05/04 14:04:51;;;;;;;6.85;4.22;;;;;;;;;;5091984;28;20032;-61
2023/05/04 14:07:17;;;;;;;5.25;4.53;;;;;;;;;;5092137;28;20441;-60
2023/05/04 14:37:15;;;;;;;6.70;5.15;;;;;;;;;;5091465;28;20100;-61
2023/05/04 14:39:41;;;;;;;6.43;4.80;;;;;;;;;;5091509;28;20099;-60
2023/05/04 14:42:07;;;;;;;6.70;4.85;;;;;;;;;;5091634;28;20062;-60
2023/05/04 14:44:33;;;;;;;6.57;4.78;;;;;;;;;;5091359;28;20486;-60
2023/05/04 14:47:01;;;;;;;6.00;4.82;;;;;;;;;;5091724;28;20028;-60
2023/05/04 14:49:27;;;;;;;6.75;4.75;;;;;;;;;;5091870;28;20027;-60
2023/05/04 14:51:53;;;;;;;6.60;4.85;;;;;;;;;;5091202;28;20538;-60
2023/05/04 14:54:19;;;;;;;6.20;5.00;;;;;;;;;;5091347;28;20112;-61
2023/05/04 15:21:13;;;;;;;5.75;5.15;;;;;;;;;;5090568;28;20093;-61
2023/05/04 15:23:39;;;;;;;5.60;5.10;;;;;;;;;;5091102;28;20480;-60
2023/05/04 15:26:05;;;;;;;8.07;5.13;;;;;;;;;;5090880;28;20107;-60
2023/05/04 15:28:31;;;;;;;6.07;4.85;;;;;;;;;;5090840;28;20032;-60
2023/05/04 15:30:59;;;;;;;5.93;5.32;;;;;;;;;;5090784;28;20027;-60
2023/05/04 15:33:25;;;;;;;4.72;4.32;;;;;;;;;;5091238;28;20024;-60
2023/05/04 15:35:51;;;;;;;7.03;5.40;;;;;;;;;;5090633;28;20107;-60
2023/05/04 15:38:17;;;;;;;6.30;5.30;;;;;;;;;;5090989;28;20463;-60
2023/05/04 15:40:43;;;;;;;6.15;5.28;;;;;;;;;;5090653;28;20099;-60
2023/05/04 15:43:09;;;;;;;6.13;5.22;;;;;;;;;;5091108;28;20123;-60
2023/05/04 15:45:35;;;;;;;6.15;5.55;;;;;;;;;;5090626;28;20107;-61
2023/05/04 15:48:01;;;;;;;6.05;5.05;;;;;;;;;;5090739;28;20140;-61
2023/05/04 15:50:27;;;;;;;5.80;5.28;;;;;;;;;;5090793;28;20527;-60
2023/05/04 15:52:53;;;;;;;5.63;5.13;;;;;;;;;;5090452;28;20103;-60
2023/05/04 15:55:19;;;;;;;7.25;5.28;;;;;;;;;;5090697;28;20036;-60